sensor_id;sensor_type;location;lat;lon;timestamp;pressure;altitude;pressure_sealevel;temperature;humidity
58843;BME280;44614;54.356;10.100;2022-09-17T00:02:17;100067.28;;;11.10;100.00
58843;BME280;44614;54.356;10.100;2022-09-17T00:04:42;100073.38;;;11.12;100.00
58843;BME280;44614;54.356;10.100;2022-09-17T00:07:07;100070.63;;;11.12;100.00
58843;BME280;44614;54.356;10.100;2022-09-17T00:09:33;100078.41;;;11.15;100.00
58843;BME280;44614;54.356;10.100;2022-09-17T00:11:58;100075.38;;;11.16;100.00
58843;BME280;44614;54.356;10.100;2022-09-17T00:14:23;100079.56;;;11.19;99.95
58843;BME280;44614;54.356;10.100;2022-09-17T00:16:48;100080.41;;;11.19;100.00
58843;BME280;44614;54.356;10.100;2022-09-17T00:19:15;100080.75;;;11.23;99.94
58843;BME280;44614;54.356;10.100;2022-09-17T00:21:41;100081.56;;;11.23;99.85
58843;BME280;44614;54.356;10.100;2022-09-17T00:24:06;100077.72;;;11.25;99.58
58843;BME280;44614;54.356;10.100;2022-09-17T00:26:32;100078.56;;;11.25;99.54
58843;BME280;44614;54.356;10.100;2022-09-17T00:28:58;100071.75;;;11.28;99.38
58843;BME280;44614;54.356;10.100;2022-09-17T00:31:23;100073.19;;;11.30;99.09
58843;BME280;44614;54.356;10.100;2022-09-17T00:33:49;100077.84;;;11.30;98.77
58843;BME280;44614;54.356;10.100;2022-09-17T00:36:14;100086.66;;;11.32;98.61
58843;BME280;44614;54.356;10.100;2022-09-17T00:38:40;100080.09;;;11.33;98.28
58843;BME280;44614;54.356;10.100;2022-09-17T00:41:05;100088.09;;;11.34;98.16
58843;BME280;44614;54.356;10.100;2022-09-17T00:46:11;100089.28;;;11.38;97.62
58843;BME280;44614;54.356;10.100;2022-09-17T00:48:42;100093.69;;;11.39;97.60
58843;BME280;44614;54.356;10.100;2022-09-17T00:51:07;100087.09;;;11.40;97.23
58843;BME280;44614;54.356;10.100;2022-09-17T00:53:34;100091.28;;;11.43;97.28
58843;BME280;44614;54.356;10.100;2022-09-17T00:56:01;100094.84;;;11.43;96.95
58843;BME280;44614;54.356;10.100;2022-09-17T00:58:27;100100.13;;;11.45;97.01
58843;BME280;44614;54.356;10.100;2022-09-17T01:00:53;100094.38;;;11.46;96.94
58843;BME280;44614;54.356;10.100;2022-09-17T01:03:19;100091.63;;;11.46;96.81
58843;BME280;44614;54.356;10.100;2022-09-17T01:06:04;100090.53;;;11.47;96.74
58843;BME280;44614;54.356;10.100;2022-09-17T01:13:58;100097.47;;;11.50;96.08
58843;BME280;44614;54.356;10.100;2022-09-17T01:32:03;100100.78;;;11.52;96.59
58843;BME280;44614;54.356;10.100;2022-09-17T01:34:45;100101.03;;;11.51;96.76
58843;BME280;44614;54.356;10.100;2022-09-17T01:37:16;100102.13;;;11.50;97.16
58843;BME280;44614;54.356;10.100;2022-09-17T01:40:19;100096.03;;;11.47;97.10
58843;BME280;44614;54.356;10.100;2022-09-17T01:42:46;100097.13;;;11.46;97.33
58843;BME280;44614;54.356;10.100;2022-09-17T01:45:17;100103.44;;;11.47;97.34
58843;BME280;44614;54.356;10.100;2022-09-17T01:47:56;100096.28;;;11.46;97.47
58843;BME280;44614;54.356;10.100;2022-09-17T01:50:24;100100.13;;;11.45;97.34
58843;BME280;44614;54.356;10.100;2022-09-17T01:52:52;100104.75;;;11.44;97.25
58843;BME280;44614;54.356;10.100;2022-09-17T01:55:18;100103.94;;;11.44;97.17
58843;BME280;44614;54.356;10.100;2022-09-17T01:57:48;100102.53;;;11.41;96.72
58843;BME280;44614;54.356;10.100;2022-09-17T02:00:15;100108.03;;;11.41;96.63
58843;BME280;44614;54.356;10.100;2022-09-17T02:02:49;100111.00;;;11.40;96.64
58843;BME280;44614;54.356;10.100;2022-09-17T02:05:28;100109.59;;;11.37;97.00
58843;BME280;44614;54.356;10.100;2022-09-17T02:07:57;100103.25;;;11.37;97.31
58843;BME280;44614;54.356;10.100;2022-09-17T02:10:28;100107.09;;;11.36;97.27
58843;BME280;44614;54.356;10.100;2022-09-17T02:12:56;100101.00;;;11.34;97.80
58843;BME280;44614;54.356;10.100;2022-09-17T02:15:24;100104.47;;;11.29;97.87
58843;BME280;44614;54.356;10.100;2022-09-17T02:17:52;100099.50;;;11.26;98.10
58843;BME280;44614;54.356;10.100;2022-09-17T02:20:18;100093.41;;;11.24;98.32
58843;BME280;44614;54.356;10.100;2022-09-17T02:22:49;100099.38;;;11.21;98.30
58843;BME280;44614;54.356;10.100;2022-09-17T02:25:24;100097.72;;;11.20;98.26
58843;BME280;44614;54.356;10.100;2022-09-17T02:27:59;100102.59;;;11.18;98.27
58843;BME280;44614;54.356;10.100;2022-09-17T02:30:25;100099.84;;;11.18;98.27
58843;BME280;44614;54.356;10.100;2022-09-17T02:32:50;100097.13;;;11.18;98.58
58843;BME280;44614;54.356;10.100;2022-09-17T02:35:15;100094.38;;;11.18;98.30
58843;BME280;44614;54.356;10.100;2022-09-17T02:37:41;100098.81;;;11.19;98.28
58843;BME280;44614;54.356;10.100;2022-09-17T02:40:06;100101.56;;;11.19;97.77
58843;BME280;44614;54.356;10.100;2022-09-17T02:55:39;100103.69;;;11.17;95.89
58843;BME280;44614;54.356;10.100;2022-09-17T03:00:37;100102.28;;;11.14;95.45
58843;BME280;44614;54.356;10.100;2022-09-17T03:03:11;100098.69;;;11.14;95.22
58843;BME280;44614;54.356;10.100;2022-09-17T03:05:38;100109.94;;;11.12;95.07
58843;BME280;44614;54.356;10.100;2022-09-17T03:08:06;100103.34;;;11.13;95.35
58843;BME280;44614;54.356;10.100;2022-09-17T03:10:32;100106.69;;;11.15;95.40
58843;BME280;44614;54.356;10.100;2022-09-17T03:12:57;100103.34;;;11.13;95.30
58843;BME280;44614;54.356;10.100;2022-09-17T03:15:23;100101.69;;;11.12;95.37
58843;BME280;44614;54.356;10.100;2022-09-17T03:17:48;100090.09;;;11.10;95.64
58843;BME280;44614;54.356;10.100;2022-09-17T03:20:13;100091.66;;;11.06;95.35
58843;BME280;44614;54.356;10.100;2022-09-17T03:22:40;100096.81;;;11.03;95.31
58843;BME280;44614;54.356;10.100;2022-09-17T03:25:05;100100.06;;;11.00;95.45
58843;BME280;44614;54.356;10.100;2022-09-17T03:27:30;100103.88;;;10.98;95.38
58843;BME280;44614;54.356;10.100;2022-09-17T03:29:55;100098.16;;;11.00;95.36
58843;BME280;44614;54.356;10.100;2022-09-17T03:32:21;100095.63;;;10.98;95.17
58843;BME280;44614;54.356;10.100;2022-09-17T03:34:46;100095.06;;;10.96;95.29
58843;BME280;44614;54.356;10.100;2022-09-17T03:37:12;100093.41;;;10.95;95.07
58843;BME280;44614;54.356;10.100;2022-09-17T03:39:37;100093.88;;;10.92;94.51
58843;BME280;44614;54.356;10.100;2022-09-17T03:42:02;100098.78;;;10.90;94.49
58843;BME280;44614;54.356;10.100;2022-09-17T03:44:27;100104.75;;;10.87;94.21
58843;BME280;44614;54.356;10.100;2022-09-17T03:46:52;100092.56;;;10.83;93.94
58843;BME280;44614;54.356;10.100;2022-09-17T03:49:18;100091.75;;;10.83;93.92
58843;BME280;44614;54.356;10.100;2022-09-17T03:51:43;100090.34;;;10.80;93.54
58843;BME280;44614;54.356;10.100;2022-09-17T03:54:09;100093.56;;;10.77;93.62
58843;BME280;44614;54.356;10.100;2022-09-17T03:56:34;100085.19;;;10.72;93.01
58843;BME280;44614;54.356;10.100;2022-09-17T03:59:00;100097.75;;;10.68;93.01
58843;BME280;44614;54.356;10.100;2022-09-17T04:01:26;100096.34;;;10.65;92.74
58843;BME280;44614;54.356;10.100;2022-09-17T04:03:52;100096.00;;;10.62;92.73
58843;BME280;44614;54.356;10.100;2022-09-17T04:06:17;100104.44;;;10.60;92.68
58843;BME280;44614;54.356;10.100;2022-09-17T04:08:42;100107.91;;;10.56;92.48
58843;BME280;44614;54.356;10.100;2022-09-17T04:11:07;100094.66;;;10.53;92.54
58843;BME280;44614;54.356;10.100;2022-09-17T04:13:33;100095.19;;;10.49;92.14
58843;BME280;44614;54.356;10.100;2022-09-17T04:15:58;100109.38;;;10.46;92.19
58843;BME280;44614;54.356;10.100;2022-09-17T04:18:23;100108.19;;;10.42;92.27
58843;BME280;44614;54.356;10.100;2022-09-17T04:20:48;100115.81;;;10.40;92.54
58843;BME280;44614;54.356;10.100;2022-09-17T04:23:14;100107.84;;;10.39;92.81
58843;BME280;44614;54.356;10.100;2022-09-17T04:25:39;100102.81;;;10.36;92.51
58843;BME280;44614;54.356;10.100;2022-09-17T04:28:04;100112.00;;;10.30;92.48
58843;BME280;44614;54.356;10.100;2022-09-17T04:30:29;100107.34;;;10.30;92.75
58843;BME280;44614;54.356;10.100;2022-09-17T04:32:55;100104.00;;;10.28;92.85
58843;BME280;44614;54.356;10.100;2022-09-17T04:35:20;100109.09;;;10.24;92.60
58843;BME280;44614;54.356;10.100;2022-09-17T04:37:55;100109.00;;;10.19;92.47
58843;BME280;44614;54.356;10.100;2022-09-17T04:40:21;100114.72;;;10.18;92.73
58843;BME280;44614;54.356;10.100;2022-09-17T04:42:46;100116.63;;;10.17;92.88
58843;BME280;44614;54.356;10.100;2022-09-17T04:45:12;100113.75;;;10.12;92.04
58843;BME280;44614;54.356;10.100;2022-09-17T04:47:37;100110.88;;;10.07;92.31
58843;BME280;44614;54.356;10.100;2022-09-17T04:50:03;100119.38;;;10.06;92.19
58843;BME280;44614;54.356;10.100;2022-09-17T04:52:29;100114.97;;;10.05;92.35
58843;BME280;44614;54.356;10.100;2022-09-17T04:54:54;100119.63;;;10.04;92.51
58843;BME280;44614;54.356;10.100;2022-09-17T04:57:19;100114.34;;;10.02;92.39
58843;BME280;44614;54.356;10.100;2022-09-17T04:59:44;100108.50;;;9.99;91.94
58843;BME280;44614;54.356;10.100;2022-09-17T05:02:09;100113.16;;;9.98;92.11
58843;BME280;44614;54.356;10.100;2022-09-17T05:04:35;100103.84;;;9.99;92.25
58843;BME280;44614;54.356;10.100;2022-09-17T05:07:00;100108.13;;;9.95;91.90
58843;BME280;44614;54.356;10.100;2022-09-17T05:09:26;100106.47;;;9.94;91.73
58843;BME280;44614;54.356;10.100;2022-09-17T05:11:51;100113.03;;;9.93;91.91
58843;BME280;44614;54.356;10.100;2022-09-17T05:14:17;100111.59;;;9.91;91.91
58843;BME280;44614;54.356;10.100;2022-09-17T05:16:42;100103.00;;;9.87;91.67
58843;BME280;44614;54.356;10.100;2022-09-17T05:19:07;100106.81;;;9.86;92.06
58843;BME280;44614;54.356;10.100;2022-09-17T05:21:32;100113.97;;;9.87;92.21
58843;BME280;44614;54.356;10.100;2022-09-17T05:23:58;100112.31;;;9.86;92.17
58843;BME280;44614;54.356;10.100;2022-09-17T05:26:23;100113.84;;;9.82;92.40
58843;BME280;44614;54.356;10.100;2022-09-17T05:28:48;100115.63;;;9.76;92.27
58843;BME280;44614;54.356;10.100;2022-09-17T05:31:13;100115.84;;;9.75;92.24
58843;BME280;44614;54.356;10.100;2022-09-17T05:33:39;100118.03;;;9.73;92.17
58843;BME280;44614;54.356;10.100;2022-09-17T05:36:04;100125.53;;;9.77;92.62
58843;BME280;44614;54.356;10.100;2022-09-17T05:38:29;100114.56;;;9.77;92.29
58843;BME280;44614;54.356;10.100;2022-09-17T05:40:55;100118.72;;;9.80;92.72
58843;BME280;44614;54.356;10.100;2022-09-17T05:43:20;100120.53;;;9.86;93.06
58843;BME280;44614;54.356;10.100;2022-09-17T05:45:45;100126.03;;;9.86;92.61
58843;BME280;44614;54.356;10.100;2022-09-17T05:48:12;100130.19;;;9.89;92.65
58843;BME280;44614;54.356;10.100;2022-09-17T05:50:38;100125.56;;;9.89;92.45
58843;BME280;44614;54.356;10.100;2022-09-17T05:53:04;100125.31;;;9.91;92.20
58843;BME280;44614;54.356;10.100;2022-09-17T05:55:30;100132.44;;;9.92;92.05
58843;BME280;44614;54.356;10.100;2022-09-17T05:57:55;100127.22;;;9.90;92.03
58843;BME280;44614;54.356;10.100;2022-09-17T06:00:21;100128.28;;;9.89;91.91
58843;BME280;44614;54.356;10.100;2022-09-17T06:02:46;100125.78;;;9.88;92.20
58843;BME280;44614;54.356;10.100;2022-09-17T06:05:11;100132.34;;;9.87;92.30
58843;BME280;44614;54.356;10.100;2022-09-17T06:07:37;100137.59;;;9.88;92.60
58843;BME280;44614;54.356;10.100;2022-09-17T06:10:03;100138.19;;;9.90;92.52
58843;BME280;44614;54.356;10.100;2022-09-17T06:12:29;100139.84;;;9.91;92.67
58843;BME280;44614;54.356;10.100;2022-09-17T06:14:54;100148.91;;;9.92;92.84
58843;BME280;44614;54.356;10.100;2022-09-17T06:17:19;100137.72;;;9.93;92.53
58843;BME280;44614;54.356;10.100;2022-09-17T06:19:45;100151.56;;;9.98;92.60
58843;BME280;44614;54.356;10.100;2022-09-17T06:22:10;100144.31;;;10.04;92.66
58843;BME280;44614;54.356;10.100;2022-09-17T06:24:35;100142.75;;;10.08;92.28
58843;BME280;44614;54.356;10.100;2022-09-17T06:27:00;100139.66;;;10.16;92.65
58843;BME280;44614;54.356;10.100;2022-09-17T06:29:26;100140.28;;;10.30;92.45
58843;BME280;44614;54.356;10.100;2022-09-17T06:31:51;100139.78;;;10.45;92.14
58843;BME280;44614;54.356;10.100;2022-09-17T06:34:18;100144.81;;;10.60;91.84
58843;BME280;44614;54.356;10.100;2022-09-17T06:36:43;100147.78;;;10.70;91.56
58843;BME280;44614;54.356;10.100;2022-09-17T06:39:09;100150.25;;;10.83;90.79
58843;BME280;44614;54.356;10.100;2022-09-17T06:41:35;100156.34;;;10.85;90.15
58843;BME280;44614;54.356;10.100;2022-09-17T06:44:01;100153.72;;;10.90;90.09
58843;BME280;44614;54.356;10.100;2022-09-17T06:46:26;100150.22;;;10.95;90.13
58843;BME280;44614;54.356;10.100;2022-09-17T06:48:51;100156.69;;;11.01;90.44
58843;BME280;44614;54.356;10.100;2022-09-17T06:51:17;100153.47;;;11.04;89.95
58843;BME280;44614;54.356;10.100;2022-09-17T06:53:42;100158.66;;;11.17;89.77
58843;BME280;44614;54.356;10.100;2022-09-17T06:56:08;100158.75;;;11.34;89.76
58843;BME280;44614;54.356;10.100;2022-09-17T06:58:36;100166.78;;;11.52;89.50
58843;BME280;44614;54.356;10.100;2022-09-17T07:01:02;100161.81;;;11.66;88.61
58843;BME280;44614;54.356;10.100;2022-09-17T07:03:28;100164.84;;;11.81;88.35
58843;BME280;44614;54.356;10.100;2022-09-17T07:05:54;100163.50;;;11.95;87.88
58843;BME280;44614;54.356;10.100;2022-09-17T07:08:19;100171.75;;;12.12;87.63
58843;BME280;44614;54.356;10.100;2022-09-17T07:10:44;100165.31;;;12.24;87.00
58843;BME280;44614;54.356;10.100;2022-09-17T07:13:10;100165.72;;;12.32;85.27
58843;BME280;44614;54.356;10.100;2022-09-17T07:15:35;100165.81;;;12.37;84.88
58843;BME280;44614;54.356;10.100;2022-09-17T07:18:07;100157.91;;;12.41;85.16
58843;BME280;44614;54.356;10.100;2022-09-17T07:20:32;100170.41;;;12.49;84.39
58843;BME280;44614;54.356;10.100;2022-09-17T07:22:58;100158.63;;;12.53;83.90
58843;BME280;44614;54.356;10.100;2022-09-17T07:25:23;100163.88;;;12.55;83.17
58843;BME280;44614;54.356;10.100;2022-09-17T07:27:49;100162.38;;;12.64;83.38
58843;BME280;44614;54.356;10.100;2022-09-17T07:30:15;100152.00;;;12.71;83.25
58843;BME280;44614;54.356;10.100;2022-09-17T07:32:40;100164.09;;;12.70;82.90
58843;BME280;44614;54.356;10.100;2022-09-17T07:35:06;100156.16;;;12.74;83.59
58843;BME280;44614;54.356;10.100;2022-09-17T07:37:31;100156.03;;;12.85;83.53
58843;BME280;44614;54.356;10.100;2022-09-17T07:39:56;100154.84;;;12.98;82.94
58843;BME280;44614;54.356;10.100;2022-09-17T07:42:21;100154.25;;;12.96;81.20
58843;BME280;44614;54.356;10.100;2022-09-17T07:44:47;100148.06;;;13.06;81.82
58843;BME280;44614;54.356;10.100;2022-09-17T07:47:12;100148.72;;;13.13;80.91
58843;BME280;44614;54.356;10.100;2022-09-17T07:49:37;100148.63;;;13.08;79.51
58843;BME280;44614;54.356;10.100;2022-09-17T07:52:02;100146.19;;;13.11;80.30
58843;BME280;44614;54.356;10.100;2022-09-17T07:54:30;100143.25;;;13.18;80.10
58843;BME280;44614;54.356;10.100;2022-09-17T07:56:55;100142.94;;;13.36;80.62
58843;BME280;44614;54.356;10.100;2022-09-17T07:59:21;100139.53;;;13.51;79.31
58843;BME280;44614;54.356;10.100;2022-09-17T08:01:46;100145.91;;;13.57;79.34
58843;BME280;44614;54.356;10.100;2022-09-17T08:04:12;100141.63;;;13.66;79.39
58843;BME280;44614;54.356;10.100;2022-09-17T08:06:38;100137.28;;;13.75;79.15
58843;BME280;44614;54.356;10.100;2022-09-17T08:09:05;100143.34;;;13.77;78.38
58843;BME280;44614;54.356;10.100;2022-09-17T08:11:31;100143.09;;;13.79;79.19
58843;BME280;44614;54.356;10.100;2022-09-17T08:13:57;100145.03;;;13.78;77.19
58843;BME280;44614;54.356;10.100;2022-09-17T08:16:22;100146.59;;;13.69;78.02
58843;BME280;44614;54.356;10.100;2022-09-17T08:18:53;100151.88;;;13.71;78.10
58843;BME280;44614;54.356;10.100;2022-09-17T08:21:18;100146.38;;;13.76;78.38
58843;BME280;44614;54.356;10.100;2022-09-17T08:23:44;100143.06;;;13.74;77.16
58843;BME280;44614;54.356;10.100;2022-09-17T08:26:13;100149.63;;;13.68;76.64
58843;BME280;44614;54.356;10.100;2022-09-17T08:28:38;100136.38;;;13.70;77.42
58843;BME280;44614;54.356;10.100;2022-09-17T08:31:04;100132.38;;;13.82;76.88
58843;BME280;44614;54.356;10.100;2022-09-17T08:33:34;100136.72;;;14.05;76.27
58843;BME280;44614;54.356;10.100;2022-09-17T08:36:00;100123.41;;;14.34;76.88
58843;BME280;44614;54.356;10.100;2022-09-17T08:38:25;100128.84;;;14.56;74.47
58843;BME280;44614;54.356;10.100;2022-09-17T08:46:12;100107.53;;;15.04;72.69
58843;BME280;44614;54.356;10.100;2022-09-17T08:48:42;100119.19;;;15.22;72.96
58843;BME280;44614;54.356;10.100;2022-09-17T08:51:21;100124.19;;;15.25;71.18
58843;BME280;44614;54.356;10.100;2022-09-17T08:54:54;100122.78;;;15.22;71.28
58843;BME280;44614;54.356;10.100;2022-09-17T08:56:44;100128.06;;;15.24;70.29
58843;BME280;44614;54.356;10.100;2022-09-17T08:59:16;100124.81;;;15.52;70.61
58843;BME280;44614;54.356;10.100;2022-09-17T09:07:29;100118.25;;;15.74;68.13
58843;BME280;44614;54.356;10.100;2022-09-17T09:09:45;100122.38;;;15.71;67.73
58843;BME280;44614;54.356;10.100;2022-09-17T09:12:16;100128.50;;;15.68;69.45
58843;BME280;44614;54.356;10.100;2022-09-17T09:14:47;100131.25;;;15.73;68.88
58843;BME280;44614;54.356;10.100;2022-09-17T09:17:14;100126.81;;;15.67;68.06
58843;BME280;44614;54.356;10.100;2022-09-17T09:19:41;100131.16;;;15.53;67.81
58843;BME280;44614;54.356;10.100;2022-09-17T09:27:26;100140.03;;;15.55;69.38
58843;BME280;44614;54.356;10.100;2022-09-17T09:30:03;100137.34;;;15.70;69.39
58843;BME280;44614;54.356;10.100;2022-09-17T09:33:12;100131.28;;;15.83;68.39
58843;BME280;44614;54.356;10.100;2022-09-17T09:37:43;100137.91;;;15.82;66.32
58843;BME280;44614;54.356;10.100;2022-09-17T09:42:52;100142.38;;;16.14;68.25
58843;BME280;44614;54.356;10.100;2022-09-17T09:45:24;100136.00;;;16.24;66.78
58843;BME280;44614;54.356;10.100;2022-09-17T09:48:00;100133.22;;;16.14;66.92
58843;BME280;44614;54.356;10.100;2022-09-17T09:55:47;100139.31;;;16.21;67.37
58843;BME280;44614;54.356;10.100;2022-09-17T10:00:50;100135.16;;;16.33;66.63
58843;BME280;44614;54.356;10.100;2022-09-17T10:03:20;100127.91;;;16.58;67.32
58843;BME280;44614;54.356;10.100;2022-09-17T10:05:52;100126.75;;;16.90;64.89
58843;BME280;44614;54.356;10.100;2022-09-17T10:08:18;100125.06;;;16.94;64.79
58843;BME280;44614;54.356;10.100;2022-09-17T10:10:57;100116.75;;;16.94;63.38
58843;BME280;44614;54.356;10.100;2022-09-17T10:13:23;100117.81;;;17.08;62.79
58843;BME280;44614;54.356;10.100;2022-09-17T10:15:48;100114.09;;;17.33;63.18
58843;BME280;44614;54.356;10.100;2022-09-17T10:18:18;100131.34;;;17.20;62.87
58843;BME280;44614;54.356;10.100;2022-09-17T10:20:51;100124.44;;;17.12;63.30
58843;BME280;44614;54.356;10.100;2022-09-17T10:23:17;100121.16;;;17.00;62.41
58843;BME280;44614;54.356;10.100;2022-09-17T10:25:43;100111.78;;;16.91;62.94
58843;BME280;44614;54.356;10.100;2022-09-17T10:30:56;100004.38;;;16.31;64.72
58843;BME280;44614;54.356;10.100;2022-09-17T10:33:23;100108.28;;;17.24;65.09
58843;BME280;44614;54.356;10.100;2022-09-17T10:38:27;100107.13;;;17.36;63.53
58843;BME280;44614;54.356;10.100;2022-09-17T10:41:03;100110.16;;;17.39;63.75
58843;BME280;44614;54.356;10.100;2022-09-17T10:43:31;100111.91;;;17.20;62.22
58843;BME280;44614;54.356;10.100;2022-09-17T10:45:57;100105.00;;;17.12;64.08
58843;BME280;44614;54.356;10.100;2022-09-17T10:48:23;100112.53;;;17.01;65.45
58843;BME280;44614;54.356;10.100;2022-09-17T10:50:53;100115.34;;;16.96;65.57
58843;BME280;44614;54.356;10.100;2022-09-17T10:53:20;100117.06;;;16.82;66.33
58843;BME280;44614;54.356;10.100;2022-09-17T11:01:01;100116.84;;;16.43;70.09
58843;BME280;44614;54.356;10.100;2022-09-17T11:03:38;100117.44;;;16.29;70.91
58843;BME280;44614;54.356;10.100;2022-09-17T11:14:15;100118.81;;;16.01;72.88
58843;BME280;44614;54.356;10.100;2022-09-17T11:16:48;100130.75;;;16.07;73.90
58843;BME280;44614;54.356;10.100;2022-09-17T11:19:52;100126.84;;;16.08;74.11
58843;BME280;44614;54.356;10.100;2022-09-17T11:25:03;100126.28;;;15.91;74.92
58843;BME280;44614;54.356;10.100;2022-09-17T11:27:41;100128.78;;;15.92;75.26
58843;BME280;44614;54.356;10.100;2022-09-17T11:30:18;100129.06;;;15.86;74.71
58843;BME280;44614;54.356;10.100;2022-09-17T11:35:30;100122.13;;;15.78;73.52
58843;BME280;44614;54.356;10.100;2022-09-17T11:38:00;100125.16;;;15.71;74.14
58843;BME280;44614;54.356;10.100;2022-09-17T11:40:31;100134.28;;;15.72;74.40
58843;BME280;44614;54.356;10.100;2022-09-17T11:43:01;100133.47;;;15.87;75.16
58843;BME280;44614;54.356;10.100;2022-09-17T11:45:37;100131.84;;;16.01;74.95
58843;BME280;44614;54.356;10.100;2022-09-17T11:53:28;100132.13;;;16.20;74.42
58843;BME280;44614;54.356;10.100;2022-09-17T11:55:59;100143.16;;;16.40;71.67
58843;BME280;44614;54.356;10.100;2022-09-17T12:01:02;100131.53;;;16.43;64.67
58843;BME280;44614;54.356;10.100;2022-09-17T12:03:32;100137.63;;;16.50;63.07
58843;BME280;44614;54.356;10.100;2022-09-17T12:06:05;100142.88;;;16.62;66.94
58843;BME280;44614;54.356;10.100;2022-09-17T12:08:33;100151.75;;;16.74;64.98
58843;BME280;44614;54.356;10.100;2022-09-17T12:13:35;100145.09;;;16.80;65.13
58843;BME280;44614;54.356;10.100;2022-09-17T12:20:57;100151.50;;;16.35;69.33
58843;BME280;44614;54.356;10.100;2022-09-17T12:26:15;100156.75;;;16.37;70.81
58843;BME280;44614;54.356;10.100;2022-09-17T12:28:52;100152.31;;;16.36;71.19
58843;BME280;44614;54.356;10.100;2022-09-17T12:31:35;100151.78;;;16.33;71.07
58843;BME280;44614;54.356;10.100;2022-09-17T12:41:41;100159.53;;;16.01;73.72
58843;BME280;44614;54.356;10.100;2022-09-17T12:49:26;100160.09;;;16.13;70.60
58843;BME280;44614;54.356;10.100;2022-09-17T12:51:57;100162.59;;;16.30;69.87
58843;BME280;44614;54.356;10.100;2022-09-17T12:57:26;100178.91;;;16.77;68.23
58843;BME280;44614;54.356;10.100;2022-09-17T12:59:48;100184.19;;;16.74;66.39
58843;BME280;44614;54.356;10.100;2022-09-17T13:22:42;100179.38;;;15.57;72.60
58843;BME280;44614;54.356;10.100;2022-09-17T13:25:08;100186.75;;;15.41;73.61
58843;BME280;44614;54.356;10.100;2022-09-17T13:27:35;100187.03;;;15.40;75.31
58843;BME280;44614;54.356;10.100;2022-09-17T13:30:05;100190.03;;;15.33;75.34
58843;BME280;44614;54.356;10.100;2022-09-17T13:34:56;100216.94;;;15.48;76.55
58843;BME280;44614;54.356;10.100;2022-09-17T13:37:22;100210.59;;;15.47;76.47
58843;BME280;44614;54.356;10.100;2022-09-17T13:39:49;100206.94;;;15.36;74.59
58843;BME280;44614;54.356;10.100;2022-09-17T13:44:48;100205.97;;;15.10;75.97
58843;BME280;44614;54.356;10.100;2022-09-17T13:47:16;100203.28;;;15.26;76.57
58843;BME280;44614;54.356;10.100;2022-09-17T13:49:46;100197.94;;;15.67;75.87
58843;BME280;44614;54.356;10.100;2022-09-17T13:52:13;100203.78;;;15.75;74.44
58843;BME280;44614;54.356;10.100;2022-09-17T13:54:52;100206.53;;;15.65;74.40
58843;BME280;44614;54.356;10.100;2022-09-17T13:57:17;100215.03;;;15.53;74.76
58843;BME280;44614;54.356;10.100;2022-09-17T13:59:50;100224.72;;;15.56;75.35
58843;BME280;44614;54.356;10.100;2022-09-17T14:07:50;100224.44;;;15.52;76.35
58843;BME280;44614;54.356;10.100;2022-09-17T14:10:00;100219.72;;;15.53;76.10
58843;BME280;44614;54.356;10.100;2022-09-17T14:15:30;100220.28;;;15.50;74.50
58843;BME280;44614;54.356;10.100;2022-09-17T14:17:55;100210.63;;;15.57;75.01
58843;BME280;44614;54.356;10.100;2022-09-17T14:20:22;100225.84;;;15.60;73.85
58843;BME280;44614;54.356;10.100;2022-09-17T14:22:58;100223.34;;;15.53;73.71
58843;BME280;44614;54.356;10.100;2022-09-17T14:25:30;100241.41;;;15.66;72.46
58843;BME280;44614;54.356;10.100;2022-09-17T14:27:57;100229.25;;;15.77;71.51
58843;BME280;44614;54.356;10.100;2022-09-17T14:30:30;100224.59;;;15.88;70.90
58843;BME280;44614;54.356;10.100;2022-09-17T14:35:36;100220.97;;;15.72;69.58
58843;BME280;44614;54.356;10.100;2022-09-17T14:38:08;100225.28;;;15.58;70.27
58843;BME280;44614;54.356;10.100;2022-09-17T14:40:36;100217.19;;;15.36;70.54
58843;BME280;44614;54.356;10.100;2022-09-17T14:43:09;100209.00;;;15.04;70.43
58843;BME280;44614;54.356;10.100;2022-09-17T14:45:40;100206.91;;;14.79;72.04
58843;BME280;44614;54.356;10.100;2022-09-17T14:48:22;100212.06;;;14.65;73.14
58843;BME280;44614;54.356;10.100;2022-09-17T14:50:50;100235.78;;;14.61;73.93
58843;BME280;44614;54.356;10.100;2022-09-17T14:53:16;100236.88;;;14.55;74.54
58843;BME280;44614;54.356;10.100;2022-09-17T14:55:42;100258.84;;;14.45;74.94
58843;BME280;44614;54.356;10.100;2022-09-17T14:58:23;100260.19;;;14.42;75.77
58843;BME280;44614;54.356;10.100;2022-09-17T15:00:49;100261.25;;;14.36;76.58
58843;BME280;44614;54.356;10.100;2022-09-17T15:03:20;100250.53;;;14.39;77.17
58843;BME280;44614;54.356;10.100;2022-09-17T15:05:46;100264.19;;;14.51;77.77
58843;BME280;44614;54.356;10.100;2022-09-17T15:08:15;100264.53;;;14.60;77.76
58843;BME280;44614;54.356;10.100;2022-09-17T15:10:48;100274.75;;;14.59;77.50
58843;BME280;44614;54.356;10.100;2022-09-17T15:13:15;100286.84;;;14.53;78.23
58843;BME280;44614;54.356;10.100;2022-09-17T15:15:49;100285.38;;;14.46;78.85
58843;BME280;44614;54.356;10.100;2022-09-17T15:18:15;100287.78;;;14.37;79.49
58843;BME280;44614;54.356;10.100;2022-09-17T15:20:41;100298.63;;;14.17;80.81
58843;BME280;44614;54.356;10.100;2022-09-17T15:23:09;100307.06;;;14.05;82.06
58843;BME280;44614;54.356;10.100;2022-09-17T15:25:38;100304.44;;;13.93;83.19
58843;BME280;44614;54.356;10.100;2022-09-17T15:28:04;100323.78;;;13.71;83.72